Time;durP1;ratioP1;P1;durP2;ratioP2;P2;SDS_P1;SDS_P2;PMS_P1;PMS_P2;Temp;Humidity;BMP_temperature;BMP_pressure;BME280_temperature;BME280_humidity;BME280_pressure;Samples;Min_cycle;Max_cycle;Signal;HPM_P1;HPM_P2
2021/03/23 00:01:09;;;;;;;26.02;16.05;;;;;;;5.22;77.48;101224.53;5053530;28;20053;-79
2021/03/23 00:03:41;;;;;;;32.28;17.50;;;;;;;5.19;77.75;101216.66;5054924;28;20477;-76
2021/03/23 00:06:10;;;;;;;25.60;16.02;;;;;;;5.28;77.35;101229.69;5055214;28;20052;-78
2021/03/23 00:08:38;;;;;;;23.90;15.88;;;;;;;5.31;77.72;101234.06;5053825;28;20126;-79
2021/03/23 00:11:12;;;;;;;28.80;16.17;;;;;;;5.21;77.42;101225.44;5056492;28;20393;-78
2021/03/23 00:13:43;;;;;;;27.55;15.82;;;;;;;5.26;77.51;101242.09;5058743;28;20056;-78
2021/03/23 00:16:11;;;;;;;30.00;17.25;;;;;;;5.21;77.39;101243.97;5057948;28;20053;-78
2021/03/23 00:18:39;;;;;;;27.92;16.92;;;;;;;5.16;77.74;101236.13;5058960;28;20438;-78
2021/03/23 00:21:06;;;;;;;27.00;17.98;;;;;;;5.08;78.39;101231.88;5058265;28;20056;-78
2021/03/23 00:23:32;;;;;;;28.80;17.98;;;;;;;5.00;78.34;101238.22;5058454;28;20059;-77
2021/03/23 00:25:59;;;;;;;25.55;16.90;;;;;;;4.89;78.04;101227.84;5058771;28;20049;-78
2021/03/23 00:28:25;;;;;;;30.75;18.65;;;;;;;4.90;78.24;101236.63;5057389;28;20057;-77
2021/03/23 00:30:55;;;;;;;30.33;18.45;;;;;;;4.79;78.65;101233.34;5040943;28;20044;-77
2021/03/23 00:33:22;;;;;;;29.88;17.58;;;;;;;4.53;79.04;101201.19;5057396;28;20135;-77
2021/03/23 00:35:52;;;;;;;28.90;18.38;;;;;;;4.59;79.46;101224.88;5057395;28;20057;-78
2021/03/23 00:38:19;;;;;;;28.98;18.25;;;;;;;4.45;79.80;101217.22;5058233;28;20430;-78
2021/03/23 00:40:46;;;;;;;33.47;19.55;;;;;;;4.57;79.41;101234.63;5057147;28;20139;-77
2021/03/23 00:43:12;;;;;;;38.92;22.60;;;;;;;4.56;79.10;101234.66;5058033;28;20103;-78
2021/03/23 00:45:41;;;;;;;34.67;19.38;;;;;;;4.59;79.47;101229.31;5058283;28;20063;-78
2021/03/23 00:48:09;;;;;;;29.75;18.27;;;;;;;4.48;79.52;101230.38;5058162;28;20100;-77
2021/03/23 00:50:36;;;;;;;30.42;18.52;;;;;;;4.41;80.11;101226.09;5058002;28;20060;-78
2021/03/23 00:53:04;;;;;;;30.08;17.73;;;;;;;4.32;79.83;101228.91;5058179;28;20389;-77
2021/03/23 00:55:30;;;;;;;36.25;19.33;;;;;;;4.25;79.79;101222.00;5058334;28;20056;-77
2021/03/23 00:57:57;;;;;;;31.25;19.00;;;;;;;4.14;80.02;101216.91;5058503;28;20449;-77
2021/03/23 01:00:24;;;;;;;30.98;18.38;;;;;;;4.16;80.22;101229.19;5049490;28;20053;-77
2021/03/23 01:02:51;;;;;;;30.52;18.58;;;;;;;4.14;80.29;101233.63;5058214;28;20037;-78
2021/03/23 01:05:20;;;;;;;30.30;19.70;;;;;;;4.15;80.30;101229.22;5057814;28;20034;-78
2021/03/23 01:07:47;;;;;;;30.10;18.83;;;;;;;4.01;80.51;101227.69;5058406;28;20045;-77
2021/03/23 01:10:17;;;;;;;34.13;20.08;;;;;;;4.06;80.53;101231.13;5038803;28;20053;-77
2021/03/23 01:12:44;;;;;;;33.15;19.52;;;;;;;4.04;80.69;101232.03;5039160;28;20045;-77
2021/03/23 01:15:13;;;;;;;40.30;20.90;;;;;;;4.02;80.53;101225.88;5039865;28;20107;-78
2021/03/23 01:17:39;;;;;;;32.00;19.80;;;;;;;4.06;80.33;101225.84;5038436;28;20446;-78
2021/03/23 01:20:08;;;;;;;31.65;19.58;;;;;;;4.08;80.02;101233.72;5038019;28;20466;-77
2021/03/23 01:22:34;;;;;;;26.70;19.02;;;;;;;4.06;80.42;101222.31;5036826;28;20049;-78
2021/03/23 01:25:00;;;;;;;30.80;20.67;;;;;;;4.19;80.02;101237.06;5038107;28;20474;-77
2021/03/23 01:27:26;;;;;;;32.15;20.58;;;;;;;4.21;79.81;101224.69;5038281;28;20115;-78
2021/03/23 01:29:52;;;;;;;30.08;19.80;;;;;;;4.32;79.84;101223.63;5038011;28;20423;-77
2021/03/23 01:32:19;;;;;;;38.92;22.45;;;;;;;4.37;79.27;101235.00;5037544;28;20056;-77
2021/03/23 01:34:46;;;;;;;42.20;21.20;;;;;;;4.42;79.06;101238.41;5037616;28;20053;-77
2021/03/23 01:37:13;;;;;;;33.72;21.10;;;;;;;4.46;78.76;101223.38;5037374;28;20060;-78
2021/03/23 01:39:40;;;;;;;32.92;19.85;;;;;;;4.55;77.72;101232.91;5037532;28;20049;-77
2021/03/23 01:42:08;;;;;;;35.15;20.92;;;;;;;4.54;77.82;101237.34;5037040;28;20144;-77
2021/03/23 01:44:34;;;;;;;34.33;20.63;;;;;;;4.61;76.86;101231.03;5037415;28;20061;-78
2021/03/23 01:47:00;;;;;;;34.60;21.90;;;;;;;4.71;77.03;101222.91;5037083;28;20057;-77
2021/03/23 01:49:35;;;;;;;30.50;20.08;;;;;;;4.75;76.69;101225.47;5037274;28;20489;-78
2021/03/23 01:52:08;;;;;;;31.02;20.63;;;;;;;4.80;76.20;101224.50;5036086;28;20336;-78
2021/03/23 01:54:40;;;;;;;30.52;20.52;;;;;;;4.69;76.35;101204.44;5036800;28;20053;-77
2021/03/23 01:57:09;;;;;;;33.80;21.38;;;;;;;4.82;76.23;101226.22;5037021;28;20057;-78
2021/03/23 01:59:41;;;;;;;31.08;20.50;;;;;;;4.86;76.89;101227.03;5044327;28;20060;-78
2021/03/23 02:02:07;;;;;;;33.90;22.25;;;;;;;4.80;77.02;101219.22;5056774;28;20441;-78
2021/03/23 02:04:34;;;;;;;36.17;21.83;;;;;;;4.89;77.25;101225.22;5056783;28;20045;-78
2021/03/23 02:07:01;;;;;;;35.38;22.20;;;;;;;4.83;77.22;101221.78;5057089;28;20052;-78
2021/03/23 02:09:30;;;;;;;32.72;21.77;;;;;;;4.84;77.22;101223.53;5056832;28;20064;-78
2021/03/23 02:12:01;;;;;;;32.28;22.58;;;;;;;4.87;77.00;101226.13;5055960;28;20049;-78
2021/03/23 02:14:31;;;;;;;31.45;21.67;;;;;;;4.92;76.78;101215.44;5057967;28;20072;-77
2021/03/23 02:17:36;;;;;;;30.50;21.88;;;;;;;5.00;76.14;101219.69;5057066;28;20052;-78
2021/03/23 02:20:18;;;;;;;33.50;21.45;;;;;;;5.10;75.30;101224.78;5057020;28;20071;-77
2021/03/23 02:22:48;;;;;;;32.22;22.45;;;;;;;5.05;75.18;101214.28;5056784;28;20059;-78
2021/03/23 02:25:22;;;;;;;32.53;22.10;;;;;;;5.06;75.42;101223.13;5057338;28;20060;-78
2021/03/23 02:27:50;;;;;;;31.35;21.67;;;;;;;5.07;75.43;101222.22;5057373;28;20045;-77
2021/03/23 02:30:38;;;;;;;32.63;22.42;;;;;;;5.08;74.52;101216.00;5056274;28;20144;-78
2021/03/23 02:33:06;;;;;;;33.05;21.50;;;;;;;5.12;74.69;101215.91;5057145;28;20045;-78
2021/03/23 02:35:33;;;;;;;34.83;21.52;;;;;;;5.15;74.85;101213.22;5055440;28;20056;-77
2021/03/23 02:38:01;;;;;;;31.20;22.13;;;;;;;5.20;74.85;101209.56;5056375;28;20056;-77
2021/03/23 02:40:28;;;;;;;33.70;21.42;;;;;;;5.22;74.42;101205.16;5055919;28;20382;-77
2021/03/23 02:42:55;;;;;;;37.42;22.67;;;;;;;5.22;75.02;101208.66;5055740;28;20057;-77
2021/03/23 02:45:22;;;;;;;38.50;22.90;;;;;;;5.11;74.98;101184.19;5055115;28;20132;-77
2021/03/23 02:47:48;;;;;;;33.72;22.10;;;;;;;5.12;74.94;101186.78;5038271;28;20394;-77
2021/03/23 02:50:15;;;;;;;30.38;22.42;;;;;;;5.21;74.88;101200.72;5056015;28;20052;-77
2021/03/23 02:52:42;;;;;;;35.47;22.15;;;;;;;5.14;74.16;101195.56;5055840;28;20048;-77
2021/03/23 02:55:09;;;;;;;34.15;22.70;;;;;;;5.16;74.76;101198.19;5055685;28;20116;-77
2021/03/23 02:57:35;;;;;;;32.65;22.92;;;;;;;5.27;73.78;101201.47;5055761;28;20447;-77
2021/03/23 03:00:11;;;;;;;38.13;23.60;;;;;;;5.29;73.75;101199.66;5043622;28;20407;-78
2021/03/23 03:02:37;;;;;;;32.30;21.77;;;;;;;5.29;73.63;101199.66;5035660;28;20053;-78
2021/03/23 03:05:06;;;;;;;34.13;23.00;;;;;;;5.28;73.10;101197.03;5034850;28;20117;-76
2021/03/23 03:07:32;;;;;;;34.55;22.80;;;;;;;5.31;72.78;101199.63;5035527;28;20053;-77
2021/03/23 03:09:59;;;;;;;35.83;22.38;;;;;;;5.33;72.33;101199.59;5035689;28;20053;-76
2021/03/23 03:12:25;;;;;;;34.65;21.90;;;;;;;5.36;72.68;101199.53;5034347;28;20056;-77
2021/03/23 03:14:51;;;;;;;33.65;23.23;;;;;;;5.36;72.39;101197.75;5035446;28;20053;-77
2021/03/23 03:17:17;;;;;;;33.38;22.52;;;;;;;5.29;72.70;101191.72;5035555;28;20041;-77
2021/03/23 03:19:44;;;;;;;36.53;23.88;;;;;;;5.28;73.09;101203.22;5035420;28;20366;-77
2021/03/23 03:22:11;;;;;;;35.38;22.38;;;;;;;5.26;72.82;101212.09;5035382;28;20049;-77
2021/03/23 03:24:37;;;;;;;31.80;22.60;;;;;;;5.18;73.49;101199.06;5034703;28;20058;-77
2021/03/23 03:27:03;;;;;;;38.00;22.80;;;;;;;5.26;73.44;101205.03;5035820;28;20053;-77
2021/03/23 03:29:30;;;;;;;31.35;22.10;;;;;;;5.24;73.60;101212.13;5038542;28;20461;-76
2021/03/23 03:31:56;;;;;;;36.97;22.80;;;;;;;5.17;72.85;101194.63;5054791;28;20045;-77
2021/03/23 03:34:22;;;;;;;35.50;23.23;;;;;;;5.26;72.87;101207.69;5043834;28;20057;-77
2021/03/23 03:36:48;;;;;;;34.65;23.33;;;;;;;5.23;73.31;101207.72;5049278;28;20050;-76
2021/03/23 03:39:14;;;;;;;39.40;23.50;;;;;;;5.32;73.20;101203.16;5038713;28;20053;-77
2021/03/23 03:41:41;;;;;;;42.33;24.17;;;;;;;5.30;72.52;101200.53;5035749;28;20057;-77
2021/03/23 03:44:07;;;;;;;36.63;23.83;;;;;;;5.27;72.70;101201.47;5035449;28;20057;-77
2021/03/23 03:46:33;;;;;;;35.85;23.02;;;;;;;5.21;72.75;101209.56;5034686;28;20065;-77
2021/03/23 03:49:00;;;;;;;32.55;23.23;;;;;;;5.26;73.06;101215.63;5034978;28;20054;-77
2021/03/23 03:51:27;;;;;;;37.97;23.60;;;;;;;5.22;72.86;101195.41;5034893;28;20049;-78
2021/03/23 03:53:54;;;;;;;35.42;23.85;;;;;;;5.26;73.35;101207.69;5033779;28;20054;-77
2021/03/23 03:56:20;;;;;;;43.08;24.88;;;;;;;5.15;73.81;101184.09;5035067;28;20049;-77
2021/03/23 03:58:46;;;;;;;38.17;23.67;;;;;;;5.37;72.97;101207.44;5035494;28;20454;-77
2021/03/23 04:01:12;;;;;;;36.83;23.73;;;;;;;5.33;71.64;101194.31;5054777;28;20049;-77
2021/03/23 04:03:39;;;;;;;34.13;23.85;;;;;;;5.29;72.34;101206.75;5054847;28;20063;-78
2021/03/23 04:06:05;;;;;;;37.13;24.45;;;;;;;5.21;73.07;101190.13;5054359;28;20049;-78
2021/03/23 04:08:33;;;;;;;36.05;24.23;;;;;;;5.27;73.07;101209.41;5054828;28;20049;-77
2021/03/23 04:11:03;;;;;;;38.45;25.50;;;;;;;5.28;72.63;101213.81;5053722;28;20045;-77
2021/03/23 04:13:29;;;;;;;38.65;25.48;;;;;;;5.21;72.89;101200.72;5054748;28;20060;-77
2021/03/23 04:15:56;;;;;;;37.58;25.80;;;;;;;5.28;73.23;101213.81;5054616;28;20068;-77
2021/03/23 04:18:25;;;;;;;36.92;25.23;;;;;;;5.27;73.21;101212.06;5054614;28;20057;-77
2021/03/23 04:20:53;;;;;;;39.22;24.50;;;;;;;5.24;73.43;101214.75;5054760;28;20064;-78
2021/03/23 04:23:27;;;;;;;41.05;25.02;;;;;;;5.18;74.23;101211.41;5054773;28;20056;-77
2021/03/23 04:25:55;;;;;;;45.55;25.90;;;;;;;5.13;74.61;101208.84;5054697;28;20146;-78
2021/03/23 04:28:22;;;;;;;39.63;25.33;;;;;;;5.06;74.86;101201.94;5054917;28;20067;-78
2021/03/23 04:30:49;;;;;;;38.92;25.80;;;;;;;5.06;74.75;101194.00;5054545;28;20049;-78
2021/03/23 04:33:17;;;;;;;45.00;26.13;;;;;;;5.06;74.71;101191.38;5053308;28;20080;-77
2021/03/23 04:35:48;;;;;;;46.20;26.13;;;;;;;5.01;75.19;101210.84;5053559;28;20149;-78
2021/03/23 04:38:19;;;;;;;36.72;27.83;;;;;;;5.09;74.73;101204.53;5054371;28;20346;-77
2021/03/23 04:40:47;;;;;;;43.42;27.17;;;;;;;5.16;74.96;101198.19;5053513;28;20261;-77
2021/03/23 04:43:27;;;;;;;42.85;27.50;;;;;;;5.12;75.02;101196.53;5054199;28;20427;-77
2021/03/23 04:45:54;;;;;;;38.38;26.52;;;;;;;5.11;75.20;101189.47;5053899;28;20056;-78
2021/03/23 04:48:21;;;;;;;41.95;26.55;;;;;;;5.06;75.11;101196.66;5055176;28;20469;-78
2021/03/23 04:50:48;;;;;;;42.30;27.80;;;;;;;5.06;75.54;101201.94;5053366;28;20045;-77
2021/03/23 04:53:35;;;;;;;44.28;27.40;;;;;;;4.99;75.77;101195.91;5053317;28;20049;-78
2021/03/23 04:56:03;;;;;;;39.47;25.38;;;;;;;5.00;75.56;101198.53;5054560;28;20049;-78
2021/03/23 04:58:30;;;;;;;41.88;26.58;;;;;;;4.89;75.89;101185.53;5056057;28;20059;-78
2021/03/23 05:00:57;;;;;;;48.63;27.55;;;;;;;4.99;76.07;101202.06;5039542;28;20123;-78
2021/03/23 05:03:27;;;;;;;43.03;27.50;;;;;;;4.99;75.62;101202.06;5053269;28;20046;-77
2021/03/23 05:05:55;;;;;;;42.28;25.67;;;;;;;4.83;75.10;101187.41;5038138;28;20112;-77
2021/03/23 05:08:23;;;;;;;40.15;24.95;;;;;;;4.95;75.19;101200.38;5037742;28;20053;-77
2021/03/23 05:10:50;;;;;;;36.75;23.92;;;;;;;4.92;74.70;101197.81;5038047;28;20127;-77
2021/03/23 05:13:17;;;;;;;38.45;25.08;;;;;;;4.95;75.10;101205.69;5037886;28;20045;-77
2021/03/23 05:15:46;;;;;;;37.63;24.80;;;;;;;4.96;75.00;101206.56;5020343;28;20355;-77
2021/03/23 05:18:13;;;;;;;37.60;23.33;;;;;;;5.03;74.58;101203.75;5036617;28;20056;-77
2021/03/23 05:20:40;;;;;;;38.97;24.48;;;;;;;5.02;74.89;101198.50;5037688;28;20053;-77
2021/03/23 05:23:06;;;;;;;39.58;23.23;;;;;;;4.98;74.49;101192.41;5037407;28;20049;-78
2021/03/23 05:25:33;;;;;;;42.55;25.05;;;;;;;5.05;74.74;101202.88;5036743;28;20060;-77
2021/03/23 05:27:59;;;;;;;36.20;22.77;;;;;;;5.13;74.50;101209.72;5037472;28;20060;-78
2021/03/23 05:30:26;;;;;;;36.72;23.33;;;;;;;5.07;74.13;101206.34;5037594;28;20419;-77
2021/03/23 05:32:52;;;;;;;36.00;21.92;;;;;;;5.05;73.73;101213.44;5037325;28;20431;-77
2021/03/23 05:35:19;;;;;;;34.90;22.20;;;;;;;5.03;74.58;101198.44;5037403;28;20054;-77
2021/03/23 05:37:48;;;;;;;38.42;22.15;;;;;;;5.03;73.92;101202.88;5036503;28;20061;-78
2021/03/23 05:40:23;;;;;;;39.40;22.30;;;;;;;4.98;73.74;101196.81;5037330;28;20071;-77
2021/03/23 05:43:16;;;;;;;38.10;22.63;;;;;;;5.00;74.47;101197.63;5036787;28;20057;-77
2021/03/23 05:45:42;;;;;;;37.50;22.77;;;;;;;5.01;74.10;101197.63;5036842;28;20049;-77
2021/03/23 05:48:18;;;;;;;37.42;23.05;;;;;;;5.05;73.71;101197.56;5036732;28;20057;-77
2021/03/23 05:50:53;;;;;;;36.38;22.30;;;;;;;4.93;74.51;101202.19;5037393;28;20050;-77
2021/03/23 05:53:27;;;;;;;32.83;21.75;;;;;;;5.03;74.09;101192.31;5037710;28;20041;-78
2021/03/23 05:55:59;;;;;;;34.67;20.88;;;;;;;5.02;74.26;101204.66;5037806;28;20485;-77
2021/03/23 05:58:30;;;;;;;44.40;22.27;;;;;;;4.97;74.62;101201.22;5049623;28;20054;-78
2021/03/23 06:01:01;;;;;;;33.83;21.42;;;;;;;4.96;74.78;101195.97;5072429;28;20056;-77
2021/03/23 06:03:35;;;;;;;36.35;21.67;;;;;;;4.96;74.26;101186.25;5069285;28;20098;-78
2021/03/23 06:06:51;;;;;;;37.45;22.20;;;;;;;5.01;72.94;101199.41;5060407;28;20049;-78
2021/03/23 06:09:20;;;;;;;35.95;21.17;;;;;;;4.99;73.58;101207.38;5057560;28;20060;-79
2021/03/23 06:11:58;;;;;;;35.42;22.15;;;;;;;4.94;73.98;101213.63;5057002;28;20049;-76
2021/03/23 06:14:36;;;;;;;39.08;22.20;;;;;;;4.99;73.72;101223.25;5056707;28;20045;-76
2021/03/23 06:17:40;;;;;;;36.00;20.65;;;;;;;5.03;74.23;101213.47;5055596;28;20053;-76
2021/03/23 06:20:35;;;;;;;34.70;21.10;;;;;;;5.07;73.95;101211.63;5056333;28;20057;-78
2021/03/23 06:23:15;;;;;;;37.92;22.23;;;;;;;5.10;73.83;101216.84;5048845;28;20045;-77
2021/03/23 06:25:58;;;;;;;44.72;21.85;;;;;;;5.10;73.99;101214.19;5056150;28;20415;-78
2021/03/23 06:28:53;;;;;;;40.53;21.77;;;;;;;5.19;74.31;101221.06;5056105;28;20048;-75
2021/03/23 06:31:48;;;;;;;33.05;20.88;;;;;;;5.20;73.42;101226.34;5055981;28;20508;-75
2021/03/23 06:34:18;;;;;;;34.58;21.50;;;;;;;5.18;73.68;101220.22;5023024;28;20140;-77
2021/03/23 06:36:44;;;;;;;37.75;22.98;;;;;;;5.21;73.66;101222.78;5057478;28;20060;-77
2021/03/23 06:39:11;;;;;;;36.72;21.20;;;;;;;5.26;73.63;101226.22;5056064;28;20049;-77
2021/03/23 06:41:59;;;;;;;33.78;20.38;;;;;;;5.38;73.33;101229.47;5055954;28;20127;-79
2021/03/23 06:44:38;;;;;;;36.33;20.63;;;;;;;5.37;72.90;101231.28;5059108;28;20393;-78
2021/03/23 06:47:05;;;;;;;33.95;20.50;;;;;;;5.33;73.10;101231.38;5054812;28;20136;-79
2021/03/23 06:49:35;;;;;;;35.78;20.80;;;;;;;5.40;73.54;101238.28;5056189;28;20056;-76
2021/03/23 06:52:18;;;;;;;35.85;20.70;;;;;;;5.40;72.80;101228.53;5055824;28;20346;-75
2021/03/23 06:55:18;;;;;;;36.97;21.67;;;;;;;5.48;72.18;101236.31;5055692;28;20140;-76
2021/03/23 06:57:45;;;;;;;33.70;20.67;;;;;;;5.55;72.60;101237.03;5056029;28;20061;-77
2021/03/23 07:00:14;;;;;;;32.95;19.45;;;;;;;5.46;72.59;101234.63;5054931;28;20048;-76
2021/03/23 07:02:46;;;;;;;32.78;20.23;;;;;;;5.51;72.33;101224.78;5055839;28;20150;-76
2021/03/23 07:05:22;;;;;;;32.03;19.20;;;;;;;5.67;71.57;101235.91;5054779;28;20411;-77
2021/03/23 07:07:51;;;;;;;32.10;19.23;;;;;;;5.68;71.37;101235.00;5056139;28;20148;-77
2021/03/23 07:10:23;;;;;;;33.03;19.27;;;;;;;5.63;71.89;101232.47;5055837;28;20350;-76
2021/03/23 07:12:52;;;;;;;36.70;20.20;;;;;;;5.74;71.31;101237.50;5054573;28;20049;-77
2021/03/23 07:15:22;;;;;;;34.20;19.63;;;;;;;5.70;70.93;101219.94;5055198;28;20049;-79
2021/03/23 07:17:54;;;;;;;25.30;16.75;;;;;;;5.72;70.97;101218.09;5055383;28;20048;-79
2021/03/23 07:20:27;;;;;;;35.40;17.80;;;;;;;5.85;70.47;101229.31;5053421;28;20132;-77
2021/03/23 07:22:54;;;;;;;28.35;17.40;;;;;;;5.88;70.48;101229.22;5054571;28;20045;-77
2021/03/23 07:25:42;;;;;;;31.63;18.27;;;;;;;5.90;70.85;101235.38;5052650;28;20052;-76
2021/03/23 07:28:34;;;;;;;31.75;19.88;;;;;;;6.03;70.68;101241.25;5036850;28;20045;-78
2021/03/23 07:31:20;;;;;;;36.80;18.85;;;;;;;6.07;70.10;101247.34;5060574;28;20044;-75
2021/03/23 07:34:11;;;;;;;31.13;18.48;;;;;;;6.08;69.69;101242.03;5073787;28;20052;-74
2021/03/23 07:36:50;;;;;;;34.57;18.27;;;;;;;6.10;69.90;101234.91;5053280;28;20045;-75
2021/03/23 07:39:26;;;;;;;31.52;17.60;;;;;;;6.13;69.62;101236.59;5044524;28;20277;-76
2021/03/23 07:42:05;;;;;;;31.10;18.15;;;;;;;6.19;69.64;101243.53;5059268;28;20056;-77
2021/03/23 07:44:47;;;;;;;34.13;17.88;;;;;;;6.29;69.24;101252.13;5060119;28;20049;-77
2021/03/23 07:47:19;;;;;;;32.03;16.63;;;;;;;6.23;68.50;101256.66;5058488;28;20053;-79
2021/03/23 07:50:01;;;;;;;33.03;17.40;;;;;;;6.27;68.68;101251.28;5058709;28;20080;-80
2021/03/23 07:52:36;;;;;;;33.35;17.42;;;;;;;6.23;68.84;101253.16;5057825;28;20060;-76
2021/03/23 07:55:03;;;;;;;34.50;16.95;;;;;;;6.19;69.11;101264.72;5057348;28;20053;-75
2021/03/23 07:57:52;;;;;;;31.92;17.77;;;;;;;6.17;68.82;101240.94;5056719;28;20056;-75
2021/03/23 08:00:31;;;;;;;30.88;17.33;;;;;;;6.32;68.38;101271.47;5043347;28;20053;-76
2021/03/23 08:03:19;;;;;;;28.02;16.92;;;;;;;6.39;68.48;101270.41;5034532;28;20060;-76
2021/03/23 08:05:48;;;;;;;32.25;17.10;;;;;;;6.45;68.41;101280.00;5034543;28;20046;-76
2021/03/23 08:08:55;;;;;;;30.80;17.83;;;;;;;6.53;68.46;101274.47;5033022;28;20099;-75
2021/03/23 08:11:42;;;;;;;29.38;17.20;;;;;;;6.56;67.95;101274.41;5065358;28;20107;-75
2021/03/23 08:14:09;;;;;;;28.30;16.95;;;;;;;6.68;68.01;101277.63;5034411;28;20060;-75
2021/03/23 08:17:00;;;;;;;33.40;16.27;;;;;;;6.73;67.54;101278.38;5066304;28;20435;-76
2021/03/23 08:19:56;;;;;;;33.25;16.70;;;;;;;6.79;67.72;101271.16;5034101;28;20065;-76
2021/03/23 08:22:49;;;;;;;26.23;15.77;;;;;;;6.79;67.49;101257.00;5031639;28;20049;-75
2021/03/23 08:25:16;;;;;;;29.58;16.95;;;;;;;6.90;67.54;101269.97;5034759;28;20454;-75
2021/03/23 08:28:13;;;;;;;31.05;16.48;;;;;;;6.96;66.95;101260.97;5037702;28;20116;-76
2021/03/23 08:31:10;;;;;;;31.65;18.08;;;;;;;7.02;66.93;101264.31;5049096;28;20079;-75
2021/03/23 08:33:42;;;;;;;34.95;17.50;;;;;;;7.07;66.93;101264.19;5080895;28;20444;-76
2021/03/23 08:36:17;;;;;;;44.42;17.50;;;;;;;7.12;67.23;101267.56;5075115;28;20353;-76
2021/03/23 08:38:55;;;;;;;39.00;17.40;;;;;;;7.21;66.31;101261.13;5058223;28;20052;-75
2021/03/23 08:41:59;;;;;;;32.92;16.90;;;;;;;7.32;66.04;101250.19;5058376;28;20079;-75
2021/03/23 08:44:33;;;;;;;33.17;17.13;;;;;;;7.44;66.04;101260.47;5058285;28;20430;-75
2021/03/23 08:47:17;;;;;;;30.85;17.02;;;;;;;7.31;66.24;101240.50;5056922;28;20111;-76
2021/03/23 08:49:45;;;;;;;31.08;16.77;;;;;;;7.36;65.83;101254.50;5057180;28;20378;-76
2021/03/23 08:52:31;;;;;;;32.33;17.08;;;;;;;7.44;66.41;101257.81;5058467;28;20600;-76
2021/03/23 08:54:58;;;;;;;30.90;17.63;;;;;;;7.37;65.83;101264.22;5056243;28;20401;-76
2021/03/23 08:58:00;;;;;;;27.73;16.67;;;;;;;7.43;66.33;101258.72;5057414;28;20434;-75
2021/03/23 09:00:36;;;;;;;34.92;17.40;;;;;;;7.58;66.21;101259.16;5043525;28;20068;-75
2021/03/23 09:03:11;;;;;;;29.05;16.45;;;;;;;7.77;65.83;101269.19;5038216;28;20041;-77
2021/03/23 09:05:53;;;;;;;32.78;16.25;;;;;;;7.81;65.69;101265.53;5038108;28;20053;-77
2021/03/23 09:08:42;;;;;;;26.88;17.45;;;;;;;7.96;65.31;101274.81;5036672;28;20060;-77
2021/03/23 09:11:22;;;;;;;35.97;17.38;;;;;;;7.80;65.25;101274.44;5037862;28;20063;-76
2021/03/23 09:14:06;;;;;;;31.67;17.00;;;;;;;7.74;65.48;101276.34;5037714;28;20489;-77
2021/03/23 09:17:00;;;;;;;40.30;17.85;;;;;;;7.94;65.41;101279.28;5045375;28;20128;-77
2021/03/23 09:19:43;;;;;;;34.25;16.92;;;;;;;7.95;65.30;101279.25;5057925;28;20048;-76
2021/03/23 09:22:33;;;;;;;36.30;16.50;;;;;;;8.06;64.66;101286.03;5057589;28;20108;-76
2021/03/23 09:25:23;;;;;;;32.47;17.55;;;;;;;8.21;64.48;101287.28;5055885;28;20085;-76
2021/03/23 09:27:50;;;;;;;38.33;17.38;;;;;;;8.25;64.30;101283.63;5057077;28;20064;-76
2021/03/23 09:30:40;;;;;;;31.73;17.55;;;;;;;8.35;63.49;101278.88;5057691;28;20053;-77
2021/03/23 09:33:28;;;;;;;38.28;17.92;;;;;;;8.15;64.24;101291.03;5077485;28;20334;-76
2021/03/23 09:36:18;;;;;;;32.42;16.55;;;;;;;8.10;64.55;101277.91;5076322;28;20109;-76
2021/03/23 09:38:51;;;;;;;39.47;18.08;;;;;;;8.21;64.86;101280.19;5035885;28;20097;-76
2021/03/23 09:41:20;;;;;;;32.10;17.10;;;;;;;8.34;64.13;101290.44;5057208;28;20053;-77
2021/03/23 09:44:08;;;;;;;32.28;16.73;;;;;;;8.45;64.23;101293.63;5056254;28;20446;-76
2021/03/23 09:46:34;;;;;;;30.67;16.98;;;;;;;8.60;63.56;101292.22;5027041;28;20056;-76
2021/03/23 09:49:22;;;;;;;35.67;18.10;;;;;;;8.59;63.83;101294.94;5057316;28;20053;-76
2021/03/23 09:52:04;;;;;;;34.35;18.08;;;;;;;8.73;63.91;101281.16;5056756;28;20328;-76
2021/03/23 09:54:46;;;;;;;32.97;17.50;;;;;;;8.59;63.11;101284.28;5057138;28;20147;-76
2021/03/23 09:57:19;;;;;;;34.25;18.85;;;;;;;8.66;62.78;101273.38;5056347;28;20060;-76
2021/03/23 10:00:21;;;;;;;31.65;16.40;;;;;;;8.84;62.64;101276.34;5054975;28;20045;-76
2021/03/23 10:02:48;;;;;;;38.78;17.17;;;;;;;8.99;62.38;101274.88;5054800;28;20144;-75
2021/03/23 10:05:21;;;;;;;31.50;17.30;;;;;;;8.99;62.10;101274.88;5056928;28;20064;-76
2021/03/23 10:07:50;;;;;;;35.50;17.92;;;;;;;9.04;61.95;101264.94;5056691;28;20052;-76
2021/03/23 10:10:29;;;;;;;30.92;15.55;;;;;;;9.09;61.90;101268.31;5057059;28;20139;-76
2021/03/23 10:12:58;;;;;;;32.72;14.52;;;;;;;8.91;61.73;101271.66;5055775;28;20049;-76
2021/03/23 10:15:31;;;;;;;31.85;15.55;;;;;;;8.94;62.13;101264.41;5056672;28;20324;-76
2021/03/23 10:18:16;;;;;;;32.05;16.13;;;;;;;9.25;61.27;101262.41;5056810;28;20056;-76
2021/03/23 10:20:44;;;;;;;29.38;15.25;;;;;;;9.21;60.72;101255.47;5055808;28;20442;-76
2021/03/23 10:23:11;;;;;;;30.73;16.10;;;;;;;9.21;60.62;101266.13;5055995;28;20041;-76
2021/03/23 10:25:41;;;;;;;31.25;16.13;;;;;;;9.19;61.03;101259.97;5056208;28;20101;-76
2021/03/23 10:28:07;;;;;;;33.22;16.30;;;;;;;9.28;60.60;101262.31;5056113;28;20075;-76
2021/03/23 10:30:37;;;;;;;32.55;15.88;;;;;;;9.33;60.38;101265.66;5056120;28;20053;-75
2021/03/23 10:33:22;;;;;;;32.53;14.85;;;;;;;9.17;60.85;101259.16;5056253;28;20045;-77
2021/03/23 10:35:56;;;;;;;33.13;15.63;;;;;;;9.21;61.43;101258.16;5055187;28;20350;-77
2021/03/23 10:38:40;;;;;;;30.48;15.93;;;;;;;9.38;61.39;101257.50;5056344;28;20045;-77
2021/03/23 10:41:16;;;;;;;29.85;14.55;;;;;;;9.61;60.75;101253.94;5055759;28;20053;-77
2021/03/23 10:43:43;;;;;;;25.83;15.55;;;;;;;9.74;59.95;101253.44;5056137;28;20350;-77
2021/03/23 10:46:55;;;;;;;41.03;18.23;;;;;;;9.88;59.99;101247.56;5057364;28;20139;-77
2021/03/23 10:49:29;;;;;;;46.67;17.83;;;;;;;9.98;59.78;101245.38;5052622;28;20053;-77
2021/03/23 10:52:04;;;;;;;30.50;16.77;;;;;;;9.95;59.37;101245.50;5059665;28;20056;-77
2021/03/23 10:54:34;;;;;;;27.48;14.25;;;;;;;9.88;58.94;101247.56;5061947;28;20048;-76
2021/03/23 10:57:26;;;;;;;29.95;15.15;;;;;;;9.94;58.89;101247.31;5056769;28;20076;-75
2021/03/23 10:59:53;;;;;;;24.10;13.10;;;;;;;9.83;58.78;101230.88;5048219;28;20056;-76
2021/03/23 11:02:31;;;;;;;26.70;13.43;;;;;;;9.89;58.85;101236.84;5052706;28;20083;-76
2021/03/23 11:05:10;;;;;;;24.17;13.55;;;;;;;10.07;58.41;101233.47;5055307;28;20103;-75
2021/03/23 11:07:58;;;;;;;26.45;13.82;;;;;;;10.23;58.23;101236.38;5055376;28;20055;-76
2021/03/23 11:10:33;;;;;;;28.52;13.25;;;;;;;10.24;56.95;101235.44;5054637;28;20049;-75
2021/03/23 11:13:00;;;;;;;28.48;13.13;;;;;;;10.21;58.07;101224.88;5055285;28;20059;-74
2021/03/23 11:15:31;;;;;;;23.90;12.65;;;;;;;10.26;57.53;101234.44;5055456;28;20049;-77
2021/03/23 11:18:00;;;;;;;22.98;13.35;;;;;;;10.49;57.28;101231.72;5055579;28;20056;-75
2021/03/23 11:20:40;;;;;;;21.65;12.02;;;;;;;10.31;56.57;101227.06;5055148;28;20504;-75
2021/03/23 11:23:21;;;;;;;26.65;12.32;;;;;;;10.58;56.85;101215.31;5060943;28;20075;-75
2021/03/23 11:25:50;;;;;;;24.05;12.82;;;;;;;10.42;56.67;101223.09;5064778;28;20045;-75
2021/03/23 11:28:18;;;;;;;21.23;13.07;;;;;;;10.27;57.32;101203.25;5060135;28;20350;-80
2021/03/23 11:30:45;;;;;;;25.70;13.80;;;;;;;10.38;56.43;101200.13;5055243;28;20057;-76
2021/03/23 11:33:13;;;;;;;24.55;13.05;;;;;;;10.49;56.64;101208.56;5055117;28;20041;-75
2021/03/23 11:35:48;;;;;;;26.60;13.55;;;;;;;10.82;55.60;101177.75;5055248;28;20716;-76
2021/03/23 11:38:15;;;;;;;30.23;13.40;;;;;;;10.99;54.47;101196.56;5038049;28;20057;-76
2021/03/23 11:40:42;;;;;;;28.85;13.50;;;;;;;11.20;53.89;101193.81;5055236;28;20057;-77
2021/03/23 11:43:33;;;;;;;25.02;12.45;;;;;;;11.23;53.83;101195.47;5054604;28;20118;-79
2021/03/23 11:46:07;;;;;;;26.05;13.18;;;;;;;11.38;52.83;101183.19;5054429;28;20079;-76